logo
App data

Fractal: Make Blooms Not War

Push, Combo, and Chain your way through a pulsing technicolor dreamscape all the while expanding your consciousness at 130 BPM.
Store | Hub | SteamDB | Site
Developer: Cipher Prime Studios Publisher: Cipher Prime Studios
Genre: Indie, Casual
Languages: English, French, German, Italian, Japanese, Korean, Portuguese - Portugal, Russian, Simplified Chinese, Spanish - Spain
Tags: Casual (41), Indie (39), Puzzle (31)
Category: Single-player
Release date: Nov 29, 2011
Price: $6.99
Old userscore: 75% Owners: 100,000 .. 200,000
Followers: 0
Peak concurrent players yesterday: 1
Playtime total: 00:51 (average) 00:58 (median)

Steam Spy is still in beta, so expect major bugs.

Owners data:

Access restricted.

This feature is only available to users with special access rights. Sorry.

If you want to proceed, you need to register or log in first and then back Steam Spy on Patreon. Look for Indie or Pro pledge.

Don't forget to use the same email as on Steam Spy!

If you've recently backed Steam Spy on Patreon, please note, that it might take around 15 minutes for your access rights to sync. In most cases you'll need to re-login on Steam Spy too.

Audience in 2 weeks:

Access restricted.

This feature is only available to users with special access rights. Sorry.

If you want to proceed, you need to register or log in first and then back Steam Spy on Patreon. Look for Indie or Pro pledge.

Don't forget to use the same email as on Steam Spy!

If you've recently backed Steam Spy on Patreon, please note, that it might take around 15 minutes for your access rights to sync. In most cases you'll need to re-login on Steam Spy too.

Peak daily concurrent players:

CCU data courtesy of SteamDB. Used with permission.

Hourly concurrent players:

Daily Twitch stats:

Hourly Twitch stats:

Followers over time

Access restricted.

This feature is only available to users with special access rights. Sorry.

If you want to proceed, you need to register or log in first and then back Steam Spy on Patreon. Look for Indie or Pro pledge.

Don't forget to use the same email as on Steam Spy!

If you've recently backed Steam Spy on Patreon, please note, that it might take around 15 minutes for your access rights to sync. In most cases you'll need to re-login on Steam Spy too.

Views for top 50 videos on YouTube for this game:

Games similar to this one:

# Game Release date
Price
Score rank
(Userscore / Metascore)
Owners
Players
Playtime (Median)
1 X: Tension Jun 1, 2000 $4.99N/A (N/A)200,000 .. 500,0000%00:00 (00:00)
2 Puzzle Kingdoms Apr 16, 2009 $14.99N/A (N/A)50,000 .. 100,0000%00:00 (00:00)
3 The Guild II Oct 12, 2006 $9.99N/A (N/A/61%)100,000 .. 200,0000%00:00 (00:00)
4 Turba Jul 2010 $4.99N/A (N/A/76%)20,000 .. 50,0000%00:00 (00:00)
5 Lucid Jul 19, 2011 $4.99N/A (N/A)50,000 .. 100,0000%00:00 (00:00)
6 Zen Bound 2 Nov 16, 2010 $4.99N/A (N/A)100,000 .. 200,0000%00:00 (00:00)
7 Flight Control HD Nov 18, 2010 $4.99N/A (N/A)50,000 .. 100,0000%00:00 (00:00)
8 Chime Sep 6, 2010 $4.99N/A (N/A)50,000 .. 100,0000%00:00 (00:00)
9 Cosmic Osmo and the Worlds Beyond the Mackerel Jan 17, 1983 $5.99N/A (N/A)20,000 .. 50,0000%00:00 (00:00)
10 The Manhole: Masterpiece Edition Jan 17, 1983 $5.99N/A (N/A)0 .. 20,0000%00:00 (00:00)
11 Spelunx and the Caves of Mr. Seudo Jan 17, 1983 $5.99N/A (N/A)0 .. 20,0000%00:00 (00:00)
12 ARMA: Gold Edition Jul 13, 2011 $9.99N/A (N/A)500,000 .. 1,000,0001.33%00:50 (00:16)
13 Worms Blast Mar 30, 2002 $7.99N/A (N/A/73%)50,000 .. 100,0000%00:00 (00:00)
14 Evochron Mercenary Jan 16, 2012 $14.99N/A (N/A/70%)50,000 .. 100,0000%00:00 (00:00)
15 Iron Front: Digital War Edition May 25, 2012 $14.99N/A (N/A/55%)500,000 .. 1,000,0000%00:00 (00:00)
16 Cloning Clyde Mar 15, 2011 $4.99N/A (N/A)20,000 .. 50,0000%00:00 (00:00)
17 Critical Mass Jun 20, 2011 $1.99N/A (N/A/81%)100,000 .. 200,0000%00:00 (00:00)
18 Snuggle Truck Feb 3, 2012 $4.99N/A (N/A)50,000 .. 100,0000%00:00 (00:00)
19 Containment: The Zombie Puzzler Mar 2, 2012 $4.99N/A (N/A)50,000 .. 100,0000%00:00 (00:00)
20 Crazy Machines Elements Dec 6, 2011 $9.99N/A (N/A)20,000 .. 50,0000%00:00 (00:00)
21 3SwitcheD Mar 29, 2012 $9.99N/A (N/A)200,000 .. 500,0000%00:00 (00:00)
22 Dead Hungry Diner May 16, 2012 $3.99N/A (N/A)20,000 .. 50,0000%00:00 (00:00)
23 Democracy 2 Dec 1, 2007 $19.99N/A (N/A)20,000 .. 50,0000%00:00 (00:00)
24 Spacebase DF-9 Oct 27, 2014 $9.99N/A (N/A/49%)200,000 .. 500,0000%00:00 (00:00)
25 YOU DON'T KNOW JACK Vol. 1 XL Sep 12, 1995 $2.99N/A (N/A)0 .. 20,0000%00:00 (00:00)
26 Pool Nation Oct 18, 2013 $6.99N/A (N/A)200,000 .. 500,0000%00:00 (00:00)
27 Chicken Shoot Gold Nov 1, 2003 $6.99N/A (N/A)100,000 .. 200,0000%00:00 (00:00)
28 YOU DON'T KNOW JACK Vol. 3 Oct 31, 1997 $2.99N/A (N/A)0 .. 20,0000%00:00 (00:00)
29 Little Racers STREET Feb 6, 2014 $5.99N/A (N/A/62%)100,000 .. 200,0000%00:00 (00:00)
30 Left in the Dark: No One on Board Aug 20, 2013 $9.99N/A (N/A)100,000 .. 200,0000%00:00 (00:00)
31 Kitty Powers' Matchmaker Apr 22, 2015 $3.39N/A (N/A)50,000 .. 100,0000%00:00 (00:00)
32 Dog Sled Saga Sep 22, 2016 $7.99N/A (N/A)20,000 .. 50,0000%00:00 (00:00)
33 Parkan 2 May 11, 2007 $3.99N/A (N/A)50,000 .. 100,0000%00:00 (00:00)
34 The Tomorrow War Apr 3, 2014 $2.99N/A (N/A)0 .. 20,0000%00:00 (00:00)
35 Colossal Kaiju Combat: Kaijuland Battles Aug 11, 2014 $4.99N/A (N/A)0 .. 20,0000%00:00 (00:00)
36 Putt-Putt Joins the Circus Dec 31, 2000 $6.99N/A (N/A)0 .. 20,0000%00:00 (00:00)
37 Marine Park Empire Sep 3, 2015 $6.99N/A (N/A/58%)0 .. 20,0000%00:00 (00:00)
38 Cosmic DJ Oct 30, 2014 $2.99N/A (N/A)50,000 .. 100,0000%00:00 (00:00)
39 FLASHOUT 2 Jun 6, 2014 $4.99N/A (N/A)20,000 .. 50,0000%00:00 (00:00)
40 School Bus Fun Jul 3, 2014 $5.99N/A (N/A)20,000 .. 50,0000%00:00 (00:00)
41 Brink of Consciousness: Dorian Gray Syndrome Collector's Edition Jul 1, 2012 $9.99N/A (N/A)50,000 .. 100,0000%00:00 (00:00)
42 Rooms: The Main Building Jul 11, 2014 $9.99N/A (N/A)20,000 .. 50,0000%00:00 (00:00)
43 Lexica Jul 4, 2014 $4.99N/A (N/A)50,000 .. 100,0000%00:00 (00:00)
44 Bridge Constructor Medieval Sep 15, 2014 $1.99N/A (N/A)20,000 .. 50,0000%00:00 (00:00)
45 Coffin Dodgers Jul 8, 2015 $10.99N/A (N/A)50,000 .. 100,0000%00:00 (00:00)
46 Bus Simulator 16 Mar 2, 2016 $9.99N/A (N/A)200,000 .. 500,0000%00:00 (00:00)
47 Sid Meier's Colonization (Classic) Jan 1, 1994 $6.99N/A (N/A)50,000 .. 100,0000%00:00 (00:00)
48 Space Legends: At the Edge of the Universe Jul 25, 2014 $9.99N/A (N/A)0 .. 20,0000%00:00 (00:00)
49 QbQbQb Oct 29, 2014 $4.99N/A (N/A)20,000 .. 50,0000%00:00 (00:00)
50 Luna's Wandering Stars May 15, 2015 $9.99N/A (N/A)50,000 .. 100,0000%00:00 (00:00)
51 Demon Hunter: Chronicles from Beyond Dec 4, 2014 $9.99N/A (N/A)50,000 .. 100,0000%00:00 (00:00)
52 Inside The Gear Nov 21, 2014 $1.99N/A (N/A)100,000 .. 200,0000%00:00 (00:00)
53 Rescue Team May 5, 2011 $4.99N/A (N/A)20,000 .. 50,0000%00:00 (00:00)
54 Tales of the Orient: The Rising Sun Feb 27, 2015 $9.99N/A (N/A)50,000 .. 100,0000%00:00 (00:00)
55 Moorhuhn (Crazy Chicken) Feb 5, 2015 N/AN/A (N/A)20,000 .. 50,0000%00:00 (00:00)
56 Domestic Dog Aug 7, 2014 $2.99N/A (N/A)0 .. 20,0000%00:00 (00:00)
57 Air Guardians Jan 26, 2015 $0.99N/A (N/A)50,000 .. 100,0000%00:00 (00:00)
58 Witch's Pranks: Frog's Fortune Collector's Edition May 7, 2014 $6.99N/A (N/A)20,000 .. 50,0000%00:00 (00:00)
59 Sacra Terra: Angelic Night Jun 15, 2011 $2.99N/A (N/A)20,000 .. 50,0000%00:00 (00:00)
60 Inbetween Land Feb 19, 2015 $6.99N/A (N/A)20,000 .. 50,0000%00:00 (00:00)
61 Idol Hands Feb 18, 2015 $4.99N/A (N/A)20,000 .. 50,0000%00:00 (00:00)
62 The Spatials Mar 30, 2015 $9.99N/A (N/A)20,000 .. 50,0000%00:00 (00:00)
63 Vector 36 Jan 25, 2017 $19.99N/A (N/A)20,000 .. 50,0000%00:00 (00:00)
64 Heroes of Hellas 3: Athens Mar 12, 2015 $2.99N/A (N/A)20,000 .. 50,0000%00:00 (00:00)
65 Doodle God Sep 24, 2015 $14.99N/A (N/A)100,000 .. 200,0000%00:00 (00:00)
66 Night Mysteries: The Amphora Prisoner Feb 26, 2015 $1.99N/A (N/A)100,000 .. 200,0000%00:00 (00:00)
67 Time Mysteries: Inheritance - Remastered Oct 6, 2014 $9.99N/A (N/A)100,000 .. 200,0000%00:00 (00:00)
68 The Corporate Machine Jul 14, 2001 $9.99N/A (N/A/80%)20,000 .. 50,0000%00:00 (00:00)
69 Intergalactic Bubbles May 29, 2015 $1.99N/A (N/A)200,000 .. 500,0000%00:00 (00:00)
70 Dreamscapes: Nightmare's Heir - Premium Edition Mar 11, 2015 $6.99N/A (N/A)50,000 .. 100,0000%00:00 (00:00)
71 Metamorphabet Apr 29, 2015 $4.99N/A (N/A)0 .. 20,0000%00:00 (00:00)
72 Claws & Feathers Sep 18, 2014 $6.99N/A (N/A)20,000 .. 50,0000%00:00 (00:00)
73 12 Labours of Hercules II: The Cretan Bull Jun 2, 2015 $2.99N/A (N/A)200,000 .. 500,0000%00:00 (00:00)
74 12 Labours of Hercules III: Girl Power Aug 7, 2015 $2.99N/A (N/A)100,000 .. 200,0000%00:00 (00:00)
75 Sparkle 3 Genesis Apr 24, 2015 $4.99N/A (N/A)200,000 .. 500,0000%00:00 (00:00)
76 Portal of Evil: Stolen Runes Collector's Edition May 26, 2015 $4.99N/A (N/A)100,000 .. 200,0000%00:00 (00:00)
77 Mind Snares: Alice's Journey Apr 23, 2015 $9.99N/A (N/A)50,000 .. 100,0000%00:00 (00:00)
78 Tea Party Simulator 2015 Apr 23, 2015 $9.99N/A (N/A)50,000 .. 100,0000%00:00 (00:00)
79 Star Trek: Starfleet Academy May 8, 2015 $9.99N/A (N/A)50,000 .. 100,0000%00:00 (00:00)
80 Fine Sweeper May 25, 2015 $5.99N/A (N/A)0 .. 20,00020%00:16 (00:05)
81 President for a Day - Floodings Aug 12, 2015 $0.99N/A (N/A)20,000 .. 50,0000%00:00 (00:00)
82 Awe Oct 9, 2015 $0.99N/A (N/A)20,000 .. 50,0000%00:00 (00:00)
83 Al Emmo's Postcards from Anozira Aug 2, 2010 $4.99N/A (N/A)0 .. 20,0000%00:00 (00:00)
84 Idol Magical Girl Chiru Chiru Michiru Part 1 Jul 29, 2015 $19.99N/A (N/A)0 .. 20,0000%00:00 (00:00)
85 Kumoon : Ballistic Physics Puzzle Nov 10, 2015 $2.99N/A (N/A)20,000 .. 50,0000%00:00 (00:00)
86 The Oil Blue: Steam Legacy Edition Jun 22, 2010 $4.99N/A (N/A)20,000 .. 50,0000%00:00 (00:00)
87 Mountain Crime: Requital Dec 24, 2011 $2.99N/A (N/A)20,000 .. 50,0000%00:00 (00:00)
88 Rogue State Oct 16, 2015 $7.99N/A (N/A/66%)20,000 .. 50,0000%00:00 (00:00)
89 Dracula's Legacy Oct 22, 2015 $2.99N/A (N/A)50,000 .. 100,0000%00:00 (00:00)
90 Evochron Legacy SE Jan 18, 2016 $24.99N/A (N/A)100,000 .. 200,0000%00:00 (00:00)
91 Robot Squad Simulator 2017 Oct 20, 2016 $14.99N/A (N/A)0 .. 20,0000%00:00 (00:00)
92 Eventide: Slavic Fable Jan 28, 2016 $9.99N/A (N/A)50,000 .. 100,0000%00:00 (00:00)
93 Earth Space Colonies Jul 1, 2016 $9.99N/A (N/A)20,000 .. 50,0000%00:00 (00:00)
94 Colours of Magic: Aqua Teeter Apr 25, 2016 $0.99N/A (N/A)20,000 .. 50,0000%00:00 (00:00)
95 The Sandbox Evolution - Craft a 2D Pixel Universe! Nov 15, 2016 FreeN/A (N/A)200,000 .. 500,0000%00:00 (00:00)
96 Fantasy Kingdom Simulator Jun 13, 2016 $0.99N/A (N/A)100,000 .. 200,0000%00:00 (00:00)
97 Funfair Aug 20, 2016 FreeN/A (N/A)0 .. 20,0000%00:00 (00:00)
98 Tomato Jones Jul 11, 2016 $4.99N/A (N/A)50,000 .. 100,0000%00:00 (00:00)
99 The Cooking Game Oct 21, 2016 FreeN/A (N/A)100,000 .. 200,0000%00:00 (00:00)
100 The Secret Order 4: Beyond Time Sep 22, 2016 $9.99N/A (N/A)20,000 .. 50,0000%00:00 (00:00)
101 Legend of Merchant Dec 16, 2016 $1.99N/A (N/A)20,000 .. 50,0000%00:00 (00:00)
102 Peak Angle: Drift Online Nov 25, 2016 $11.99N/A (N/A)50,000 .. 100,0000%00:00 (00:00)
103 Intelligent Design: An Evolutionary Sandbox May 12, 2017 $6.99N/A (N/A)20,000 .. 50,0000%00:00 (00:00)

Tags over time:

Access restricted.

This feature is only available to users with special access rights. Sorry.

If you want to proceed, you need to register or log in first and then back Steam Spy on Patreon. Look for Indie or Pro pledge.

Don't forget to use the same email as on Steam Spy!

If you've recently backed Steam Spy on Patreon, please note, that it might take around 15 minutes for your access rights to sync. In most cases you'll need to re-login on Steam Spy too.

Owners of this game also own:

Access restricted.

This feature is only available to users with special access rights. Sorry.

If you want to proceed, you need to register or log in first and then back Steam Spy on Patreon. Look for Indie or Pro pledge.

Don't forget to use the same email as on Steam Spy!

If you've recently backed Steam Spy on Patreon, please note, that it might take around 15 minutes for your access rights to sync. In most cases you'll need to re-login on Steam Spy too.

Playtime distribution:

Access restricted.

This feature is only available to users with special access rights. Sorry.

If you want to proceed, you need to register or log in first and then back Steam Spy on Patreon. Look for Indie or Pro pledge.

Don't forget to use the same email as on Steam Spy!

If you've recently backed Steam Spy on Patreon, please note, that it might take around 15 minutes for your access rights to sync. In most cases you'll need to re-login on Steam Spy too.

Playtime (2 weeks):

Access restricted.

This feature is only available to users with special access rights. Sorry.

If you want to proceed, you need to register or log in first and then back Steam Spy on Patreon. Look for Indie or Pro pledge.

Don't forget to use the same email as on Steam Spy!

If you've recently backed Steam Spy on Patreon, please note, that it might take around 15 minutes for your access rights to sync. In most cases you'll need to re-login on Steam Spy too.

User reviews:

Login required.

Please register or log in to see this information.